Time;durP1;ratioP1;P1;durP2;ratioP2;P2;SDS_P1;SDS_P2;PMS_P1;PMS_P2;Temp;Humidity;BMP_temperature;BMP_pressure;BME280_temperature;BME280_humidity;BME280_pressure;Samples;Min_cycle;Max_cycle;Signal;HPM_P1;HPM_P2
2023/03/17 00:02:00;;;;;;;;;;;;;;;;;;5094867;28;19916;-71
2023/03/17 00:04:26;;;;;;;;;;;;;;;;;;5094632;28;20306;-69
2023/03/17 00:06:52;;;;;;;;;;;;;;;;;;5094883;28;19915;-70
2023/03/17 00:09:18;;;;;;;;;;;;;;;;;;5094205;28;19908;-69
2023/03/17 00:11:44;;;;;;;;;;;;;;;;;;5093212;28;19912;-70
2023/03/17 00:14:10;;;;;;;;;;;;;;;;;;5094398;28;19908;-69
2023/03/17 00:16:36;;;;;;;;;;;;;;;;;;5093940;28;19908;-70
2023/03/17 00:19:02;;;;;;;;;;;;;;;;;;5094379;28;19909;-70
2023/03/17 00:21:29;;;;;;;;;;;;;;;;;;5093126;28;19919;-70
2023/03/17 00:23:55;;;;;;;;;;;;;;;;;;5092641;28;20368;-70
2023/03/17 00:26:21;;;;;;;;;;;;;;;;;;5094583;28;19915;-70
2023/03/17 00:28:47;;;;;;;;;;;;;;;;;;5094220;28;19908;-71
2023/03/17 00:31:13;;;;;;;;;;;;;;;;;;5092587;28;19909;-71
2023/03/17 00:33:39;;;;;;;;;;;;;;;;;;5094199;28;19915;-71
2023/03/17 00:36:06;;;;;;;;;;;;;;;;;;5093957;28;19950;-71
2023/03/17 00:38:32;;;;;;;;;;;;;;;;;;5093773;28;19916;-71
2023/03/17 00:40:58;;;;;;;;;;;;;;;;;;5093683;28;19962;-71
2023/03/17 00:43:24;;;;;;;;;;;;;;;;;;5093970;28;19920;-70
2023/03/17 00:45:50;;;;;;;;;;;;;;;;;;5093692;28;20383;-70
2023/03/17 00:48:16;;;;;;;;;;;;;;;;;;5093945;28;20304;-70
2023/03/17 00:50:42;;;;;;;;;;;;;;;;;;5093956;28;20284;-70
2023/03/17 00:53:08;;;;;;;;;;;;;;;;;;5092222;28;19912;-71
2023/03/17 00:55:34;;;;;;;;;;;;;;;;;;5093930;28;19918;-70
2023/03/17 00:58:01;;;;;;;;;;;;;;;;;;5093815;28;20022;-71
2023/03/17 01:00:28;;;;;;;;;;;;;;;;;;5093558;28;19973;-71
2023/03/17 01:02:54;;;;;;;;;;;;;;;;;;5093903;28;19969;-71
2023/03/17 01:05:20;;;;;;;;;;;;;;;;;;5092155;28;19908;-70
2023/03/17 01:07:51;;;;;;;;;;;;;;;;;;5093833;28;19908;-70
2023/03/17 01:10:17;;;;;;;;;;;;;;;;;;5093884;28;19951;-70
2023/03/17 01:12:44;;;;;;;;;;;;;;;;;;5093451;28;19947;-71
2023/03/17 01:15:10;;;;;;;;;;;;;;;;;;5092486;28;19912;-71
2023/03/17 01:17:36;;;;;;;;;;;;;;;;;;5093626;28;20317;-70
2023/03/17 01:20:04;;;;;;;;;;;;;;;;;;5093494;28;19961;-71
2023/03/17 01:22:30;;;;;;;;;;;;;;;;;;5093695;28;20361;-70
2023/03/17 01:24:56;;;;;;;;;;;;;;;;;;5093670;28;19953;-70
2023/03/17 01:27:22;;;;;;;;;;;;;;;;;;5093247;28;19916;-70
2023/03/17 01:29:49;;;;;;;;;;;;;;;;;;5093609;28;19908;-71
2023/03/17 01:32:15;;;;;;;;;;;;;;;;;;5092295;28;19931;-71
2023/03/17 01:34:41;;;;;;;;;;;;;;;;;;5093136;28;20009;-70
2023/03/17 01:37:08;;;;;;;;;;;;;;;;;;5093569;28;19997;-71
2023/03/17 01:39:34;;;;;;;;;;;;;;;;;;5093635;28;19961;-71
2023/03/17 01:42:00;;;;;;;;;;;;;;;;;;5093106;28;19930;-71
2023/03/17 01:44:26;;;;;;;;;;;;;;;;;;5093486;28;19908;-71
2023/03/17 01:46:53;;;;;;;;;;;;;;;;;;5093499;28;19912;-71
2023/03/17 01:49:19;;;;;;;;;;;;;;;;;;5093100;28;19909;-71
2023/03/17 01:51:45;;;;;;;;;;;;;;;;;;5095950;28;19954;-71
2023/03/17 01:54:11;;;;;;;;;;;;;;;;;;5097124;28;19961;-71
2023/03/17 01:56:37;;;;;;;;;;;;;;;;;;5096733;28;20355;-71
2023/03/17 01:59:03;;;;;;;;;;;;;;;;;;5097126;28;20313;-71
2023/03/17 02:01:29;;;;;;;;;;;;;;;;;;5097046;28;19920;-71
2023/03/17 02:03:55;;;;;;;;;;;;;;;;;;5095702;28;19908;-71
2023/03/17 02:06:21;;;;;;;;;;;;;;;;;;5097358;28;19908;-71
2023/03/17 02:08:47;;;;;;;;;;;;;;;;;;5095237;28;20352;-71
2023/03/17 02:11:14;;;;;;;;;;;;;;;;;;5097153;28;20378;-71
2023/03/17 02:13:40;;;;;;;;;;;;;;;;;;5096839;28;19908;-71
2023/03/17 02:16:06;;;;;;;;;;;;;;;;;;5096421;28;20280;-71
2023/03/17 02:18:32;;;;;;;;;;;;;;;;;;5096895;28;19916;-70
2023/03/17 02:20:58;;;;;;;;;;;;;;;;;;5096730;28;19908;-71
2023/03/17 02:23:25;;;;;;;;;;;;;;;;;;5096200;28;19918;-71
2023/03/17 02:25:51;;;;;;;;;;;;;;;;;;5095350;28;20351;-71
2023/03/17 02:28:17;;;;;;;;;;;;;;;;;;5096628;28;19969;-71
2023/03/17 02:30:43;;;;;;;;;;;;;;;;;;5096175;28;19908;-71
2023/03/17 02:33:10;;;;;;;;;;;;;;;;;;5096481;28;19912;-71
2023/03/17 02:35:36;;;;;;;;;;;;;;;;;;5096334;28;19960;-71
2023/03/17 02:38:02;;;;;;;;;;;;;;;;;;5095920;28;19954;-71
2023/03/17 02:40:28;;;;;;;;;;;;;;;;;;5095021;28;19912;-71
2023/03/17 02:42:55;;;;;;;;;;;;;;;;;;5096298;28;19912;-71
2023/03/17 02:45:21;;;;;;;;;;;;;;;;;;5095845;28;19908;-71
2023/03/17 02:47:47;;;;;;;;;;;;;;;;;;5094863;28;20371;-71
2023/03/17 02:50:13;;;;;;;;;;;;;;;;;;5096177;28;19915;-71
2023/03/17 02:52:39;;;;;;;;;;;;;;;;;;5094450;28;19908;-71
2023/03/17 02:55:04;;;;;;;;;;;;;;;;;;5094379;28;19956;-71
2023/03/17 02:57:30;;;;;;;;;;;;;;;;;;5095856;28;20375;-70
2023/03/17 02:59:56;;;;;;;;;;;;;;;;;;5095622;28;20020;-71
2023/03/17 03:02:22;;;;;;;;;;;;;;;;;;5095350;28;19999;-70
2023/03/17 03:04:49;;;;;;;;;;;;;;;;;;5093875;28;19909;-71
2023/03/17 03:07:15;;;;;;;;;;;;;;;;;;5094787;28;19991;-71
2023/03/17 03:09:41;;;;;;;;;;;;;;;;;;5096333;28;19908;-71
2023/03/17 03:12:08;;;;;;;;;;;;;;;;;;5095353;28;20010;-71
2023/03/17 03:14:34;;;;;;;;;;;;;;;;;;5095681;28;19935;-71
2023/03/17 03:17:01;;;;;;;;;;;;;;;;;;5095559;28;19916;-71
2023/03/17 03:19:27;;;;;;;;;;;;;;;;;;5095251;28;20368;-71
2023/03/17 03:21:53;;;;;;;;;;;;;;;;;;5094306;28;19908;-71
2023/03/17 03:24:19;;;;;;;;;;;;;;;;;;5095443;28;20399;-71
2023/03/17 03:26:45;;;;;;;;;;;;;;;;;;5095038;28;20267;-71
2023/03/17 03:29:11;;;;;;;;;;;;;;;;;;5095386;28;19915;-71
2023/03/17 03:31:37;;;;;;;;;;;;;;;;;;5095777;28;19912;-71
2023/03/17 03:34:03;;;;;;;;;;;;;;;;;;5094873;28;19908;-71
2023/03/17 03:36:29;;;;;;;;;;;;;;;;;;5094993;28;19924;-71
2023/03/17 03:38:55;;;;;;;;;;;;;;;;;;5093805;28;19912;-71
2023/03/17 03:41:21;;;;;;;;;;;;;;;;;;5094816;28;19922;-71
2023/03/17 03:43:47;;;;;;;;;;;;;;;;;;5095096;28;19908;-71
2023/03/17 03:46:14;;;;;;;;;;;;;;;;;;5095344;28;19922;-71
2023/03/17 03:48:40;;;;;;;;;;;;;;;;;;5094603;28;19966;-71
2023/03/17 03:51:06;;;;;;;;;;;;;;;;;;5094967;28;19908;-71
2023/03/17 03:53:32;;;;;;;;;;;;;;;;;;5094877;28;19951;-71
2023/03/17 03:55:58;;;;;;;;;;;;;;;;;;5093217;28;19908;-72
2023/03/17 03:58:23;;;;;;;;;;;;;;;;;;5094730;28;19916;-72
2023/03/17 04:00:50;;;;;;;;;;;;;;;;;;5094759;28;19908;-72
2023/03/17 04:03:15;;;;;;;;;;;;;;;;;;5094414;28;19908;-71
2023/03/17 04:05:42;;;;;;;;;;;;;;;;;;5094700;28;19914;-71
2023/03/17 04:08:08;;;;;;;;;;;;;;;;;;5094330;28;19912;-71
2023/03/17 04:10:34;;;;;;;;;;;;;;;;;;5094901;28;19987;-71
2023/03/17 04:13:00;;;;;;;;;;;;;;;;;;5094552;28;19912;-71
2023/03/17 04:15:26;;;;;;;;;;;;;;;;;;5093290;28;19908;-71
2023/03/17 04:17:53;;;;;;;;;;;;;;;;;;5094696;28;20348;-71
2023/03/17 04:20:19;;;;;;;;;;;;;;;;;;5094477;28;19999;-71
2023/03/17 04:22:45;;;;;;;;;;;;;;;;;;5094086;28;19908;-71
2023/03/17 04:25:13;;;;;;;;;;;;;;;;;;5094356;28;19955;-71
2023/03/17 04:27:39;;;;;;;;;;;;;;;;;;5094371;28;19908;-72
2023/03/17 04:30:04;;;;;;;;;;;;;;;;;;5093920;28;20458;-72
2023/03/17 04:32:30;;;;;;;;;;;;;;;;;;5092934;28;19908;-71
2023/03/17 04:34:57;;;;;;;;;;;;;;;;;;5094076;28;20380;-72
2023/03/17 04:37:23;;;;;;;;;;;;;;;;;;5093794;28;19922;-72
2023/03/17 04:39:50;;;;;;;;;;;;;;;;;;5094316;28;19908;-71
2023/03/17 04:42:16;;;;;;;;;;;;;;;;;;5092953;28;19909;-71
2023/03/17 04:44:42;;;;;;;;;;;;;;;;;;5093802;28;19942;-72
2023/03/17 04:47:08;;;;;;;;;;;;;;;;;;5092817;28;19908;-72
2023/03/17 04:49:34;;;;;;;;;;;;;;;;;;5094032;28;19912;-71
2023/03/17 04:52:00;;;;;;;;;;;;;;;;;;5093671;28;19916;-71
2023/03/17 04:54:26;;;;;;;;;;;;;;;;;;5094544;28;19942;-71
2023/03/17 04:56:52;;;;;;;;;;;;;;;;;;5093882;28;20015;-72
2023/03/17 04:59:18;;;;;;;;;;;;;;;;;;5093554;28;19908;-72
2023/03/17 05:01:44;;;;;;;;;;;;;;;;;;5092608;28;19989;-72
2023/03/17 05:04:10;;;;;;;;;;;;;;;;;;5093858;28;19924;-72
2023/03/17 05:06:36;;;;;;;;;;;;;;;;;;5093483;28;19915;-71
2023/03/17 05:09:02;;;;;;;;;;;;;;;;;;5093748;28;19908;-72
2023/03/17 05:11:28;;;;;;;;;;;;;;;;;;5093360;28;20415;-71
2023/03/17 05:13:55;;;;;;;;;;;;;;;;;;5093674;28;19912;-72
2023/03/17 05:16:21;;;;;;;;;;;;;;;;;;5093651;28;20280;-71
2023/03/17 05:18:47;;;;;;;;;;;;;;;;;;5093109;28;19916;-71
2023/03/17 05:21:13;;;;;;;;;;;;;;;;;;5092381;28;20279;-71
2023/03/17 05:23:40;;;;;;;;;;;;;;;;;;5094194;28;19915;-71
2023/03/17 05:26:06;;;;;;;;;;;;;;;;;;5093957;28;20287;-71
2023/03/17 05:28:32;;;;;;;;;;;;;;;;;;5097119;28;19931;-71
2023/03/17 05:30:58;;;;;;;;;;;;;;;;;;5097642;28;19914;-71
2023/03/17 05:33:24;;;;;;;;;;;;;;;;;;5097192;28;19919;-71
2023/03/17 05:35:51;;;;;;;;;;;;;;;;;;5097337;28;20336;-70
2023/03/17 05:38:17;;;;;;;;;;;;;;;;;;5097772;28;19916;-70
2023/03/17 05:40:43;;;;;;;;;;;;;;;;;;5095676;28;19915;-71
2023/03/17 05:43:09;;;;;;;;;;;;;;;;;;5095790;28;19916;-71
2023/03/17 05:45:35;;;;;;;;;;;;;;;;;;5095446;28;19908;-70
2023/03/17 05:48:01;;;;;;;;;;;;;;;;;;5093692;28;20050;-70
2023/03/17 05:50:27;;;;;;;;;;;;;;;;;;5095193;28;19908;-70
2023/03/17 05:52:53;;;;;;;;;;;;;;;;;;5095034;28;20070;-70
2023/03/17 05:55:19;;;;;;;;;;;;;;;;;;5095010;28;19912;-71
2023/03/17 05:57:45;;;;;;;;;;;;;;;;;;5095119;28;19916;-71
2023/03/17 06:00:11;;;;;;;;;;;;;;;;;;5095051;28;19978;-71
2023/03/17 06:02:37;;;;;;;;;;;;;;;;;;5095511;28;19908;-71
2023/03/17 06:05:03;;;;;;;;;;;;;;;;;;5096608;28;19915;-70
2023/03/17 06:07:29;;;;;;;;;;;;;;;;;;5096938;28;20002;-71
2023/03/17 06:09:55;;;;;;;;;;;;;;;;;;5096498;28;19959;-71
2023/03/17 06:12:21;;;;;;;;;;;;;;;;;;5095503;28;20322;-71
2023/03/17 06:14:47;;;;;;;;;;;;;;;;;;5095277;28;19976;-72
2023/03/17 06:17:13;;;;;;;;;;;;;;;;;;5095676;28;20368;-70
2023/03/17 06:19:39;;;;;;;;;;;;;;;;;;5091557;28;19955;-77
2023/03/17 06:22:08;;;;;;;;;;;;;;;;;;5087561;28;19948;-76
2023/03/17 06:24:33;;;;;;;;;;;;;;;;;;5092825;28;19995;-70
2023/03/17 06:27:00;;;;;;;;;;;;;;;;;;5056796;28;20053;-70
2023/03/17 06:29:27;;;;;;;;;;;;;;;;;;5072948;28;19928;-71
2023/03/17 06:31:53;;;;;;;;;;;;;;;;;;5080355;28;19908;-70
2023/03/17 06:34:19;;;;;;;;;;;;;;;;;;5089771;28;19920;-70
2023/03/17 06:36:45;;;;;;;;;;;;;;;;;;5074856;28;19918;-71
2023/03/17 06:39:11;;;;;;;;;;;;;;;;;;5072619;28;19908;-74
2023/03/17 06:41:37;;;;;;;;;;;;;;;;;;5089102;28;20005;-73
2023/03/17 06:44:04;;;;;;;;;;;;;;;;;;5089608;28;19912;-74
2023/03/17 06:46:30;;;;;;;;;;;;;;;;;;5072037;28;19908;-72
2023/03/17 06:48:56;;;;;;;;;;;;;;;;;;5090465;28;20382;-72
2023/03/17 06:51:21;;;;;;;;;;;;;;;;;;5070785;28;19912;-73
2023/03/17 06:53:47;;;;;;;;;;;;;;;;;;5088768;28;19955;-73
2023/03/17 06:56:13;;;;;;;;;;;;;;;;;;5074081;28;19912;-75
2023/03/17 06:58:40;;;;;;;;;;;;;;;;;;5092347;28;19916;-72
2023/03/17 07:01:06;;;;;;;;;;;;;;;;;;5093497;28;19908;-73
2023/03/17 07:03:32;;;;;;;;;;;;;;;;;;5094385;28;19931;-73
2023/03/17 07:05:58;;;;;;;;;;;;;;;;;;5091837;28;20023;-73
2023/03/17 07:08:24;;;;;;;;;;;;;;;;;;5084489;28;20001;-73
2023/03/17 07:10:50;;;;;;;;;;;;;;;;;;5072808;28;19912;-73
2023/03/17 07:13:16;;;;;;;;;;;;;;;;;;5074621;28;19961;-74
2023/03/17 07:15:42;;;;;;;;;;;;;;;;;;5093632;28;19912;-76
2023/03/17 07:18:08;;;;;;;;;;;;;;;;;;5073979;28;19938;-72
2023/03/17 07:20:35;;;;;;;;;;;;;;;;;;5086454;28;20272;-70
2023/03/17 07:23:00;;;;;;;;;;;;;;;;;;5082707;28;21464;-71
2023/03/17 07:25:27;;;;;;;;;;;;;;;;;;5084033;28;20007;-73
2023/03/17 07:27:53;;;;;;;;;;;;;;;;;;5100080;28;19916;-74
2023/03/17 07:30:19;;;;;;;;;;;;;;;;;;5083366;28;19916;-70
2023/03/17 07:32:45;;;;;;;;;;;;;;;;;;5093374;28;19908;-70
2023/03/17 07:35:11;;;;;;;;;;;;;;;;;;5090781;28;19923;-67
2023/03/17 07:37:37;;;;;;;;;;;;;;;;;;5069275;28;20314;-69
2023/03/17 07:40:03;;;;;;;;;;;;;;;;;;5088978;28;20311;-69
2023/03/17 07:42:29;;;;;;;;;;;;;;;;;;5088265;28;20375;-72
2023/03/17 07:44:55;;;;;;;;;;;;;;;;;;5091490;28;19908;-71
2023/03/17 07:47:21;;;;;;;;;;;;;;;;;;5092347;28;19921;-71
2023/03/17 07:49:47;;;;;;;;;;;;;;;;;;5093755;28;20373;-69
2023/03/17 07:52:13;;;;;;;;;;;;;;;;;;5092214;28;19930;-71
2023/03/17 07:54:40;;;;;;;;;;;;;;;;;;5077377;28;19908;-70
2023/03/17 07:57:07;;;;;;;;;;;;;;;;;;5066538;28;19981;-72
2023/03/17 07:59:32;;;;;;;;;;;;;;;;;;5080058;28;19923;-71
2023/03/17 08:02:00;;;;;;;;;;;;;;;;;;5089204;28;20337;-71
2023/03/17 08:04:26;;;;;;;;;;;;;;;;;;5090215;28;19972;-71
2023/03/17 08:06:56;;;;;;;;;;;;;;;;;;5092078;28;19909;-72
2023/03/17 08:09:21;;;;;;;;;;;;;;;;;;5091181;28;19919;-71
2023/03/17 08:11:47;;;;;;;;;;;;;;;;;;5091037;28;19916;-71
2023/03/17 08:14:13;;;;;;;;;;;;;;;;;;5072348;28;19965;-72
2023/03/17 08:16:40;;;;;;;;;;;;;;;;;;5088334;28;19984;-70
2023/03/17 08:19:06;;;;;;;;;;;;;;;;;;5089883;28;20004;-72
2023/03/17 08:21:32;;;;;;;;;;;;;;;;;;5088520;28;19912;-69
2023/03/17 08:23:58;;;;;;;;;;;;;;;;;;5085303;28;19912;-71
2023/03/17 08:26:24;;;;;;;;;;;;;;;;;;5088953;28;19977;-71
2023/03/17 08:28:50;;;;;;;;;;;;;;;;;;5089946;28;19908;-70
2023/03/17 08:31:16;;;;;;;;;;;;;;;;;;5089874;28;19908;-72
2023/03/17 08:33:42;;;;;;;;;;;;;;;;;;5078065;28;19973;-72
2023/03/17 08:36:09;;;;;;;;;;;;;;;;;;5077531;28;19947;-69
2023/03/17 08:38:35;;;;;;;;;;;;;;;;;;5083478;28;19928;-68
2023/03/17 08:41:01;;;;;;;;;;;;;;;;;;5054169;28;19913;-68
2023/03/17 08:43:27;;;;;;;;;;;;;;;;;;5087138;28;20272;-71
2023/03/17 08:45:53;;;;;;;;;;;;;;;;;;5071048;28;19908;-70
2023/03/17 08:48:19;;;;;;;;;;;;;;;;;;5071360;28;19920;-71
2023/03/17 08:50:46;;;;;;;;;;;;;;;;;;5089574;28;19939;-72
2023/03/17 08:53:13;;;;;;;;;;;;;;;;;;5081445;28;20024;-72
2023/03/17 08:55:38;;;;;;;;;;;;;;;;;;5069039;28;19912;-72
2023/03/17 08:58:04;;;;;;;;;;;;;;;;;;5059879;28;19973;-71
2023/03/17 09:00:34;;;;;;;;;;;;;;;;;;5085826;28;19919;-74
2023/03/17 09:03:10;;;;;;;;;;;;;;;;;;5090567;28;20297;-76
2023/03/17 09:05:36;;;;;;;;;;;;;;;;;;5089460;28;19912;-73
2023/03/17 09:08:02;;;;;;;;;;;;;;;;;;5090863;28;19938;-75
2023/03/17 09:10:29;;;;;;;;;;;;;;;;;;5090844;28;19998;-79
2023/03/17 09:13:01;;;;;;;;;;;;;;;;;;5092368;28;19912;-68
2023/03/17 09:15:27;;;;;;;;;;;;;;;;;;5074031;28;19912;-70
2023/03/17 09:17:53;;;;;;;;;;;;;;;;;;5091961;28;20035;-72
2023/03/17 09:20:21;;;;;;;;;;;;;;;;;;5067849;28;20700;-70
2023/03/17 09:22:47;;;;;;;;;;;;;;;;;;5088855;28;19930;-68
2023/03/17 09:25:13;;;;;;;;;;;;;;;;;;5088280;28;19908;-68
2023/03/17 09:27:39;;;;;;;;;;;;;;;;;;5087005;28;20046;-68
2023/03/17 09:30:06;;;;;;;;;;;;;;;;;;5069750;28;19934;-68
2023/03/17 09:32:32;;;;;;;;;;;;;;;;;;5077684;28;20352;-68
2023/03/17 09:34:58;;;;;;;;;;;;;;;;;;5069814;28;19989;-69
2023/03/17 09:37:25;;;;;;;;;;;;;;;;;;5086211;28;20377;-69
2023/03/17 09:39:50;;;;;;;;;;;;;;;;;;5086920;28;19912;-70
2023/03/17 09:42:17;;;;;;;;;;;;;;;;;;5086217;28;19908;-70
2023/03/17 09:44:43;;;;;;;;;;;;;;;;;;5081458;28;19923;-69
2023/03/17 09:47:09;;;;;;;;;;;;;;;;;;5084344;28;19966;-70
2023/03/17 09:49:35;;;;;;;;;;;;;;;;;;5069389;28;19908;-71
2023/03/17 09:52:01;;;;;;;;;;;;;;;;;;5087052;28;19957;-67
2023/03/17 09:54:27;;;;;;;;;;;;;;;;;;5067536;28;19916;-66
2023/03/17 09:56:53;;;;;;;;;;;;;;;;;;5058294;28;19939;-70
2023/03/17 09:59:19;;;;;;;;;;;;;;;;;;5085595;28;19967;-71
2023/03/17 10:01:45;;;;;;;;;;;;;;;;;;5083234;28;19916;-67
2023/03/17 10:04:11;;;;;;;;;;;;;;;;;;5068073;28;19919;-72
2023/03/17 10:06:38;;;;;;;;;;;;;;;;;;5087429;28;19912;-70
2023/03/17 10:09:03;;;;;;;;;;;;;;;;;;5068768;28;19931;-70
2023/03/17 10:11:30;;;;;;;;;;;;;;;;;;5086241;28;20416;-68
2023/03/17 10:13:56;;;;;;;;;;;;;;;;;;5090136;28;19912;-70
2023/03/17 10:16:24;;;;;;;;;;;;;;;;;;5093242;28;20383;-69
2023/03/17 10:18:50;;;;;;;;;;;;;;;;;;5073612;28;19927;-70
2023/03/17 10:21:16;;;;;;;;;;;;;;;;;;5091688;28;19912;-71
2023/03/17 10:23:42;;;;;;;;;;;;;;;;;;5091901;28;19958;-70
2023/03/17 10:26:08;;;;;;;;;;;;;;;;;;5092488;28;19908;-70
2023/03/17 10:28:40;;;;;;;;;;;;;;;;;;5088038;28;20007;-71
2023/03/17 10:31:06;;;;;;;;;;;;;;;;;;5088161;28;20018;-72
2023/03/17 10:33:32;;;;;;;;;;;;;;;;;;5086627;28;19908;-71
2023/03/17 10:35:58;;;;;;;;;;;;;;;;;;5084369;28;19927;-71
2023/03/17 10:38:24;;;;;;;;;;;;;;;;;;5085767;28;19964;-72
2023/03/17 10:40:50;;;;;;;;;;;;;;;;;;5081501;28;20064;-73
2023/03/17 10:43:16;;;;;;;;;;;;;;;;;;5083727;28;20625;-72
2023/03/17 10:45:42;;;;;;;;;;;;;;;;;;5085417;28;20502;-71
2023/03/17 10:48:08;;;;;;;;;;;;;;;;;;5067711;28;19912;-71
2023/03/17 10:50:34;;;;;;;;;;;;;;;;;;5085410;28;20006;-72
2023/03/17 10:53:00;;;;;;;;;;;;;;;;;;5082753;28;20558;-72
2023/03/17 10:55:29;;;;;;;;;;;;;;;;;;5068147;28;20508;-72
2023/03/17 11:01:33;;;;;;;;;;;;;;;;;;5102715;27;19916;-71
2023/03/17 11:04:01;;;;;;;;;;;;;;;;;;5100809;28;20012;-71
2023/03/17 11:09:29;;;;;;;;;;;;;;;;;;5155574;27;19911;-69
2023/03/17 11:13:22;;;;;;;;;;;;;;;;;;5086401;27;19927;-73
2023/03/17 11:18:52;;;;;;;;;;;;;;;;;;5078269;27;19927;-72
2023/03/17 11:22:03;;;;;;;;;;;;;;;;;;5089227;27;19919;-74
2023/03/17 11:24:29;;;;;;;;;;;;;;;;;;5089052;28;19924;-76
2023/03/17 11:26:56;;;;;;;;;;;;;;;;;;5086940;28;20376;-74
2023/03/17 11:29:22;;;;;;;;;;;;;;;;;;5087701;28;19940;-75
2023/03/17 11:32:48;;;;;;;;;;;;;;;;;;5107732;27;19912;-74
2023/03/17 11:35:15;;;;;;;;;;;;;;;;;;5105722;28;20494;-73
2023/03/17 11:40:06;;;;;;;;;;;;;;;;;;5084105;27;20521;-71
2023/03/17 11:42:32;;;;;;;;;;;;;;;;;;5085491;28;20345;-71
2023/03/17 11:44:58;;;;;;;;;;;;;;;;;;5087182;28;19946;-71
2023/03/17 11:48:12;;;;;;;;;;;;;;;;;;5086744;27;19912;-74
2023/03/17 11:50:38;;;;;;;;;;;;;;;;;;5087522;28;19940;-72
2023/03/17 11:58:12;;;;;;;;;;;;;;;;;;5106890;28;19985;-69
2023/03/17 12:00:38;;;;;;;;;;;;;;;;;;5109696;28;19912;-71
2023/03/17 12:04:46;;;;;;;;;;;;;;;;;;5087804;27;19978;-73
2023/03/17 12:08:52;;;;;;;;;;;;;;;;;;5050767;28;19921;-71
2023/03/17 12:13:15;;;;;;;;;;;;;;;;;;5120550;27;19913;-71
2023/03/17 12:15:42;;;;;;;;;;;;;;;;;;5087695;28;19917;-72
2023/03/17 12:18:08;;;;;;;;;;;;;;;;;;5088993;28;19912;-74
2023/03/17 12:20:34;;;;;;;;;;;;;;;;;;5086838;28;20260;-73
2023/03/17 12:24:19;;;;;;;;;;;;;;;;;;5088574;27;20341;-74
2023/03/17 12:26:45;;;;;;;;;;;;;;;;;;5089055;28;19919;-72
2023/03/17 12:30:16;;;;;;;;;;;;;;;;;;5085046;27;19924;-72
2023/03/17 12:32:42;;;;;;;;;;;;;;;;;;5064648;28;19919;-74
2023/03/17 12:35:09;;;;;;;;;;;;;;;;;;5047464;28;19909;-73
2023/03/17 12:40:28;;;;;;;;;;;;;;;;;;5090132;27;20299;-71
2023/03/17 12:42:54;;;;;;;;;;;;;;;;;;5089112;28;19912;-72
2023/03/17 12:47:15;;;;;;;;;;;;;;;;;;5090593;27;20307;-71
2023/03/17 12:51:23;;;;;;;;;;;;;;;;;;5107790;27;20006;-74
2023/03/17 12:54:06;;;;;;;;;;;;;;;;;;5087620;28;19916;-74
2023/03/17 12:57:23;;;;;;;;;;;;;;;;;;5088690;27;19943;-70
2023/03/17 13:03:22;;;;;;;;;;;;;;;;;;5110421;27;20314;-68
2023/03/17 13:05:48;;;;;;;;;;;;;;;;;;5109752;28;19918;-71
2023/03/17 13:09:08;;;;;;;;;;;;;;;;;;5087518;27;19913;-68
2023/03/17 13:11:34;;;;;;;;;;;;;;;;;;5087868;28;19912;-67
2023/03/17 13:14:00;;;;;;;;;;;;;;;;;;5088406;28;19912;-68
2023/03/17 13:16:26;;;;;;;;;;;;;;;;;;5089596;28;20450;-72
2023/03/17 13:19:57;;;;;;;;;;;;;;;;;;5110130;27;19922;-72
2023/03/17 13:22:23;;;;;;;;;;;;;;;;;;5111031;28;19919;-74
2023/03/17 13:28:26;;;;;;;;;;;;;;;;;;5090043;28;19923;-73
2023/03/17 13:30:52;;;;;;;;;;;;;;;;;;5089563;28;20027;-73
2023/03/17 13:35:57;;;;;;;;;;;;;;;;;;5110183;27;19920;-73
2023/03/17 13:38:23;;;;;;;;;;;;;;;;;;5110414;28;19912;-72
2023/03/17 13:40:49;;;;;;;;;;;;;;;;;;5110814;28;19999;-74
2023/03/17 13:44:02;;;;;;;;;;;;;;;;;;5054753;27;2149716;-73
2023/03/17 13:48:28;;;;;;;;;;;;;;;;;;5111862;27;19916;-76
2023/03/17 13:50:54;;;;;;;;;;;;;;;;;;5111360;28;19918;-74
2023/03/17 13:57:06;;;;;;;;;;;;;;;;;;5150383;27;19918;-75
2023/03/17 14:02:52;;;;;;;;;;;;;;;;;;5089441;27;20385;-74
2023/03/17 14:05:18;;;;;;;;;;;;;;;;;;5089519;28;20368;-74
2023/03/17 14:10:05;;;;;;;;;;;;;;;;;;5114379;27;19912;-76
2023/03/17 14:12:31;;;;;;;;;;;;;;;;;;5111642;28;19912;-74
2023/03/17 14:14:57;;;;;;;;;;;;;;;;;;5111055;28;19914;-73
2023/03/17 14:17:23;;;;;;;;;;;;;;;;;;5111074;28;19999;-73
2023/03/17 14:21:32;;;;;;;;;;;;;;;;;;5090084;28;19919;-74
2023/03/17 14:25:53;;;;;;;;;;;;;;;;;;5111822;27;19916;-74
2023/03/17 14:29:37;;;;;;;;;;;;;;;;;;5091561;28;20388;-73
2023/03/17 14:33:05;;;;;;;;;;;;;;;;;;5111739;27;19920;-73
2023/03/17 14:38:49;;;;;;;;;;;;;;;;;;5091372;27;19919;-73
2023/03/17 14:41:33;;;;;;;;;;;;;;;;;;5111870;27;19938;-74
2023/03/17 14:43:59;;;;;;;;;;;;;;;;;;5112427;28;20432;-74
2023/03/17 14:47:22;;;;;;;;;;;;;;;;;;5092171;28;19916;-73
2023/03/17 14:49:48;;;;;;;;;;;;;;;;;;5090983;28;20000;-73
2023/03/17 14:52:14;;;;;;;;;;;;;;;;;;5091535;28;19962;-72
2023/03/17 14:54:40;;;;;;;;;;;;;;;;;;5089957;28;19916;-72
2023/03/17 14:57:06;;;;;;;;;;;;;;;;;;5090789;28;19912;-72
2023/03/17 14:59:32;;;;;;;;;;;;;;;;;;5091102;28;19927;-72
2023/03/17 15:01:58;;;;;;;;;;;;;;;;;;5090988;28;19908;-72
2023/03/17 15:04:24;;;;;;;;;;;;;;;;;;5089340;28;20273;-72
2023/03/17 15:06:50;;;;;;;;;;;;;;;;;;5090877;28;19923;-72
2023/03/17 15:09:16;;;;;;;;;;;;;;;;;;5090549;28;19916;-72
2023/03/17 15:11:42;;;;;;;;;;;;;;;;;;5090891;28;19919;-72
2023/03/17 15:14:08;;;;;;;;;;;;;;;;;;5090794;28;20003;-72
2023/03/17 15:16:34;;;;;;;;;;;;;;;;;;5089058;28;19931;-74
2023/03/17 15:19:00;;;;;;;;;;;;;;;;;;5091136;28;20360;-74
2023/03/17 15:21:26;;;;;;;;;;;;;;;;;;5090732;28;20356;-73
2023/03/17 15:23:52;;;;;;;;;;;;;;;;;;5089039;28;20418;-73
2023/03/17 15:26:18;;;;;;;;;;;;;;;;;;5089344;28;19947;-74
2023/03/17 15:28:44;;;;;;;;;;;;;;;;;;5090646;28;19908;-73
2023/03/17 15:31:10;;;;;;;;;;;;;;;;;;5088752;28;19908;-73
2023/03/17 15:33:36;;;;;;;;;;;;;;;;;;5090462;28;19909;-73
2023/03/17 15:36:02;;;;;;;;;;;;;;;;;;5090394;28;19974;-74
2023/03/17 15:38:28;;;;;;;;;;;;;;;;;;5089915;28;20053;-74
2023/03/17 15:40:54;;;;;;;;;;;;;;;;;;5090231;28;19908;-73
2023/03/17 15:43:22;;;;;;;;;;;;;;;;;;5090193;28;19909;-73
2023/03/17 15:45:48;;;;;;;;;;;;;;;;;;5097547;28;19927;-73
2023/03/17 15:48:14;;;;;;;;;;;;;;;;;;5110494;28;19908;-74
2023/03/17 15:50:41;;;;;;;;;;;;;;;;;;5110597;28;19908;-75
2023/03/17 15:53:07;;;;;;;;;;;;;;;;;;5091874;28;20256;-74
2023/03/17 15:55:33;;;;;;;;;;;;;;;;;;5110701;28;19934;-74
2023/03/17 15:57:59;;;;;;;;;;;;;;;;;;5082624;28;19908;-74
2023/03/17 16:00:25;;;;;;;;;;;;;;;;;;5078235;28;19922;-74
2023/03/17 16:02:52;;;;;;;;;;;;;;;;;;5096820;28;20318;-74
2023/03/17 16:05:18;;;;;;;;;;;;;;;;;;5078279;28;20003;-74
2023/03/17 16:07:44;;;;;;;;;;;;;;;;;;5096316;28;19919;-74
2023/03/17 16:10:11;;;;;;;;;;;;;;;;;;5096852;28;19916;-74
2023/03/17 16:12:36;;;;;;;;;;;;;;;;;;5077942;28;19908;-74
2023/03/17 16:15:02;;;;;;;;;;;;;;;;;;5096725;28;20372;-74
2023/03/17 16:17:31;;;;;;;;;;;;;;;;;;5078283;28;19908;-74
2023/03/17 16:19:57;;;;;;;;;;;;;;;;;;5095914;28;20395;-73
2023/03/17 16:22:23;;;;;;;;;;;;;;;;;;5096613;28;19908;-73
2023/03/17 16:24:49;;;;;;;;;;;;;;;;;;5077977;28;19908;-74
2023/03/17 16:27:15;;;;;;;;;;;;;;;;;;5095638;28;19962;-74
2023/03/17 16:29:41;;;;;;;;;;;;;;;;;;5096243;28;19967;-75
2023/03/17 16:32:07;;;;;;;;;;;;;;;;;;5096086;28;19974;-72
2023/03/17 16:34:33;;;;;;;;;;;;;;;;;;5095903;28;19908;-73
2023/03/17 16:36:59;;;;;;;;;;;;;;;;;;5096096;28;19951;-73
2023/03/17 16:39:25;;;;;;;;;;;;;;;;;;5077226;28;20372;-72
2023/03/17 16:41:52;;;;;;;;;;;;;;;;;;5095753;28;19909;-73
2023/03/17 16:44:18;;;;;;;;;;;;;;;;;;5095328;28;19953;-73
2023/03/17 16:46:44;;;;;;;;;;;;;;;;;;5095533;28;19920;-73
2023/03/17 16:49:10;;;;;;;;;;;;;;;;;;5095410;28;19908;-72
2023/03/17 16:51:36;;;;;;;;;;;;;;;;;;5077490;28;19908;-72
2023/03/17 16:54:02;;;;;;;;;;;;;;;;;;5094513;28;19939;-72
2023/03/17 16:56:28;;;;;;;;;;;;;;;;;;5093991;28;19991;-71
2023/03/17 16:58:54;;;;;;;;;;;;;;;;;;5094031;28;20533;-72
2023/03/17 17:01:20;;;;;;;;;;;;;;;;;;5093943;28;20565;-72
2023/03/17 17:03:46;;;;;;;;;;;;;;;;;;5094910;28;19908;-72
2023/03/17 17:06:13;;;;;;;;;;;;;;;;;;5090748;28;19931;-71
2023/03/17 17:08:39;;;;;;;;;;;;;;;;;;5059140;28;19935;-72
2023/03/17 17:11:05;;;;;;;;;;;;;;;;;;5085610;28;19908;-72
2023/03/17 17:13:31;;;;;;;;;;;;;;;;;;5073810;28;19916;-72
2023/03/17 17:15:57;;;;;;;;;;;;;;;;;;5083110;28;19912;-71
2023/03/17 17:18:26;;;;;;;;;;;;;;;;;;5066202;28;20375;-71
2023/03/17 17:20:52;;;;;;;;;;;;;;;;;;5090578;28;19923;-70
2023/03/17 17:23:18;;;;;;;;;;;;;;;;;;5080292;28;19912;-71
2023/03/17 17:25:44;;;;;;;;;;;;;;;;;;5066287;28;20041;-72
2023/03/17 17:28:10;;;;;;;;;;;;;;;;;;5056674;28;19995;-73
2023/03/17 17:30:36;;;;;;;;;;;;;;;;;;5089663;28;20022;-73
2023/03/17 17:33:02;;;;;;;;;;;;;;;;;;5085140;28;19970;-73
2023/03/17 17:35:28;;;;;;;;;;;;;;;;;;5086212;28;19908;-73
2023/03/17 17:37:53;;;;;;;;;;;;;;;;;;5079576;28;19923;-73
2023/03/17 17:40:19;;;;;;;;;;;;;;;;;;5094555;28;19908;-73
2023/03/17 17:42:46;;;;;;;;;;;;;;;;;;5094560;28;19935;-73
2023/03/17 17:45:19;;;;;;;;;;;;;;;;;;5085761;28;20295;-72
2023/03/17 17:47:45;;;;;;;;;;;;;;;;;;5074183;28;20380;-71
2023/03/17 17:50:11;;;;;;;;;;;;;;;;;;5061059;28;19921;-72